الصفحة الرئيسية
METAR-TAF:

METAR-TAF

مطار :

Tiruchirappalli, الهند

دائرة عرض: 10-46N, خط طول: 078-43E, ارتفاع: 85 متر

مراقبة الطقس الحالي

تاريخ ووقت الإصدار 15 دقيقة قبل الساعة 02:30UTC
ريح 6 عقدة من الغرب/الشمال الغربي
درجة الحرارة 29°درجة مئوية
الرطوبة 74%
ضغط 1011 hPa
الرؤية: 4000 متر
غيوم قليلة على ارتفاع 1600 قدم
غيوم مفككة على ارتفاع 8000 قدم
غشاء

METAR: VOTR 190230Z 29006KT 4000 BR FEW016 BKN080 29/24 Q1011 NOSIG

زمن: 08:15 (02:45 UTC)

توقعات

تاريخ ووقت الإصدار 3ساعات و 45 دقيقة قبل الساعة 23:00UTC
التوقعات صالحة من19 الساعة 00 UTC إلى 20 الساعة 06 UTC
ريح 5 عقدة من الغرب/الشمال الغربي
الرؤية: 5000 متر
غيوم متفرقة على ارتفاع 1800 قدم
غيوم مفككة على ارتفاع 8000 قدم
أصبح
من 19 الساعة 06 UTC إلى 09 الساعة 07 UTC
ريح 10 عقدة من الغرب/الجنوب الغربي تتزايد حتى 20 عقدة
الرؤية: 6000 متر
أصبح
من 19 الساعة 12 UTC إلى 19 الساعة 13 UTC
ريح 10 عقدة من الغرب/الجنوب الغربي

TAF: VOTR 182300Z 1900/2006 29005KT 5000 -DZ/HZ SCT018 BKN080 BECMG 1906/0907 25010G20KT 6000 BECMG 1912/1913 25010KT

أرصاد الطقس والتوقعات من أكثر من 4000 مطار (تقارير الطقس للمطار METAR والتنبؤ بالطقس بالمطارTAF).

المحطات المتاحة هي النقط الصفراء والحمراء على الخريطة.

حرك المؤشر فوق النقطة لمعرفة اسم المحطة.

ثم انقر لمعرفة أرصاد وتوقعات الطقس.

لتغيير الخارطة: اضغط على الأزرار الخضراء مع رمز الصليب الأسود للتكبير. على الزر الأخضر مع شرطة للتصغير، أو على الأسهم الخضراء للخرائط المجاورة.


METAR-TAF: